Time;durP1;ratioP1;P1;durP2;ratioP2;P2;SDS_P1;SDS_P2;PMS_P1;PMS_P2;Temp;Humidity;BMP_temperature;BMP_pressure;BME280_temperature;BME280_humidity;BME280_pressure;Samples;Min_cycle;Max_cycle;Signal;HPM_P1;HPM_P2
2021/08/04 00:00:09;;;;;;;5.87;1.73;;;32.70;34.10;;;;;;4323528;33;20062;-38
2021/08/04 00:02:35;;;;;;;7.05;1.92;;;32.60;34.00;;;;;;4328319;33;20071;-38
2021/08/04 00:05:03;;;;;;;6.25;2.10;;;32.50;34.10;;;;;;4328131;33;20654;-38
2021/08/04 00:07:30;;;;;;;7.43;1.90;;;32.50;34.30;;;;;;4328301;33;20071;-39
2021/08/04 00:09:56;;;;;;;9.48;2.25;;;32.50;34.30;;;;;;4328117;33;20092;-38
2021/08/04 00:12:23;;;;;;;5.60;1.83;;;32.50;34.50;;;;;;4315811;33;20099;-38
2021/08/04 00:14:49;;;;;;;5.35;1.90;;;32.50;34.70;;;;;;4327911;33;20078;-38
2021/08/04 00:17:16;;;;;;;5.85;1.92;;;32.60;35.00;;;;;;4342503;32;20142;-39
2021/08/04 00:19:43;;;;;;;9.70;2.25;;;32.60;35.00;;;;;;4345484;32;20526;-38
2021/08/04 00:22:09;;;;;;;13.98;2.92;;;32.60;35.50;;;;;;4344890;32;20512;-39
2021/08/04 00:24:36;;;;;;;6.75;1.62;;;32.50;35.80;;;;;;4344966;32;20067;-39
2021/08/04 00:27:02;;;;;;;4.50;1.87;;;32.50;36.60;;;;;;4345085;32;20085;-39
2021/08/04 00:29:29;;;;;;;12.35;2.10;;;32.50;37.10;;;;;;4344905;32;20135;-38
2021/08/04 00:31:55;;;;;;;5.12;2.00;;;32.60;37.70;;;;;;4345178;32;20149;-38
2021/08/04 00:34:22;;;;;;;16.42;1.90;;;32.50;38.10;;;;;;4344751;32;20055;-38
2021/08/04 00:36:48;;;;;;;4.90;2.03;;;32.50;38.30;;;;;;4345481;32;20071;-38
2021/08/04 00:39:16;;;;;;;4.75;2.12;;;32.50;38.70;;;;;;4345095;32;20055;-37
2021/08/04 00:41:42;;;;;;;8.93;2.00;;;32.40;38.90;;;;;;4350551;32;20086;-38
2021/08/04 00:44:09;;;;;;;7.12;1.80;;;32.40;39.10;;;;;;4346192;32;20561;-37
2021/08/04 00:46:44;;;;;;;8.00;1.87;;;32.40;39.50;;;;;;4345880;32;20150;-38
2021/08/04 00:49:11;;;;;;;;;;;32.40;39.90;;;;;;4360049;32;20159;-38
2021/08/04 00:51:37;;;;;;;8.02;1.75;;;32.30;39.50;;;;;;4360027;32;19955;-38
2021/08/04 00:54:07;;;;;;;4.47;1.90;;;32.20;40.10;;;;;;4359743;32;20085;-38
2021/08/04 00:56:34;;;;;;;5.35;2.25;;;32.00;40.50;;;;;;4345928;32;20050;-38
2021/08/04 00:59:01;;;;;;;6.15;1.98;;;32.00;40.70;;;;;;4343071;33;20097;-38
2021/08/04 01:01:32;;;;;;;5.00;1.80;;;32.00;40.80;;;;;;4343034;33;20146;-38
2021/08/04 01:04:24;;;;;;;3.75;1.52;;;32.00;40.90;;;;;;4344971;32;20521;-38
2021/08/04 01:07:10;;;;;;;6.07;1.65;;;32.00;40.80;;;;;;4337448;33;20153;-38
2021/08/04 01:09:47;;;;;;;3.72;1.58;;;32.00;40.70;;;;;;4344340;32;20157;-37
2021/08/04 01:12:24;;;;;;;2.53;1.60;;;32.00;40.50;;;;;;4344230;32;20074;-38
2021/08/04 01:14:57;;;;;;;3.05;1.42;;;31.90;40.40;;;;;;4344519;32;20066;-38
2021/08/04 01:17:23;;;;;;;3.20;1.40;;;31.90;40.40;;;;;;4342804;32;20490;-38
2021/08/04 01:19:56;;;;;;;2.80;2.03;;;31.90;40.50;;;;;;4344943;33;20070;-38
2021/08/04 01:22:42;;;;;;;6.10;2.15;;;31.90;40.50;;;;;;4343164;33;20075;-39
2021/08/04 01:25:16;;;;;;;5.85;2.15;;;32.00;40.60;;;;;;4343210;33;20142;-38
2021/08/04 01:27:50;;;;;;;;;;;32.00;40.50;;;;;;4344551;32;20083;-38
2021/08/04 01:30:18;;;;;;;6.23;2.20;;;32.00;40.00;;;;;;4331441;33;19966;-38
2021/08/04 01:32:44;;;;;;;4.45;1.80;;;32.20;40.00;;;;;;4342848;33;20147;-38
2021/08/04 01:35:11;;;;;;;9.73;2.35;;;32.20;40.20;;;;;;4342700;33;20077;-39
2021/08/04 01:37:38;;;;;;;10.32;2.95;;;32.30;39.80;;;;;;4342477;33;20070;-39
2021/08/04 01:40:07;;;;;;;12.00;2.25;;;32.30;39.70;;;;;;4342791;33;20070;-38
2021/08/04 01:42:37;;;;;;;5.90;1.87;;;32.40;39.60;;;;;;4331724;33;20169;-38
2021/08/04 01:45:04;;;;;;;8.73;2.80;;;32.40;39.40;;;;;;4315992;33;20059;-38
2021/08/04 01:47:31;;;;;;;15.60;2.90;;;32.50;39.50;;;;;;4329048;33;20170;-38
2021/08/04 01:49:58;;;;;;;8.18;2.50;;;32.60;39.40;;;;;;4327772;33;20617;-39
2021/08/04 01:52:25;;;;;;;3.17;1.80;;;32.70;39.40;;;;;;4327566;33;20078;-37
2021/08/04 01:54:52;;;;;;;9.95;2.25;;;32.60;39.10;;;;;;4329558;33;20070;-38
2021/08/04 01:57:18;;;;;;;5.57;2.15;;;32.60;39.40;;;;;;4329335;33;20535;-38
2021/08/04 01:59:44;;;;;;;5.85;2.40;;;32.40;39.70;;;;;;4344416;32;20062;-38
2021/08/04 02:02:22;;;;;;;4.40;2.30;;;32.20;40.30;;;;;;4358540;32;20076;-38
2021/08/04 02:04:49;;;;;;;4.80;2.45;;;32.10;41.20;;;;;;4358745;32;20070;-38
2021/08/04 02:07:59;;;;;;;10.52;2.00;;;32.00;41.80;;;;;;4358733;32;20074;-38
2021/08/04 02:10:52;;;;;;;9.15;2.22;;;32.00;42.50;;;;;;4357142;32;20069;-38
2021/08/04 02:13:27;;;;;;;8.70;3.15;;;32.10;42.70;;;;;;4345304;32;20076;-39
2021/08/04 02:16:09;;;;;;;10.95;3.15;;;32.20;42.60;;;;;;4345060;32;20094;-39
2021/08/04 02:18:36;;;;;;;5.55;1.95;;;32.20;42.70;;;;;;4346226;32;20054;-39
2021/08/04 02:21:02;;;;;;;4.68;2.22;;;32.20;42.80;;;;;;4332368;32;20055;-39
2021/08/04 02:23:36;;;;;;;8.55;2.25;;;32.30;42.80;;;;;;4358716;32;20191;-38
2021/08/04 02:26:11;;;;;;;5.85;1.87;;;32.20;42.80;;;;;;4333164;32;20062;-38
2021/08/04 02:28:41;;;;;;;4.57;2.20;;;32.20;42.80;;;;;;4345106;32;20070;-38
2021/08/04 02:31:11;;;;;;;3.35;1.85;;;32.20;43.00;;;;;;4344681;32;20066;-38
2021/08/04 02:33:38;;;;;;;8.10;3.15;;;32.10;43.10;;;;;;4332760;32;20050;-37
2021/08/04 02:36:05;;;;;;;4.78;2.28;;;32.10;43.10;;;;;;4320082;32;20058;-38
2021/08/04 02:38:31;;;;;;;3.30;1.58;;;32.20;43.00;;;;;;4344259;32;20050;-38
2021/08/04 02:40:58;;;;;;;5.18;1.85;;;32.40;42.80;;;;;;4344267;32;20066;-37
2021/08/04 02:43:25;;;;;;;3.90;1.37;;;32.50;42.50;;;;;;4358469;32;20069;-37
2021/08/04 02:45:52;;;;;;;7.37;2.10;;;32.70;42.10;;;;;;4344644;32;20081;-38
2021/08/04 02:48:19;;;;;;;3.20;1.92;;;32.90;41.80;;;;;;4344095;32;20074;-38
2021/08/04 02:51:02;;;;;;;7.90;1.73;;;33.10;41.20;;;;;;4357936;32;20541;-38
2021/08/04 02:53:29;;;;;;;16.60;3.05;;;33.40;40.90;;;;;;4346098;32;20054;-38
2021/08/04 02:55:55;;;;;;;4.32;1.50;;;33.70;40.50;;;;;;4358508;32;20062;-38
2021/08/04 02:58:22;;;;;;;5.87;1.80;;;34.20;39.90;;;;;;4358577;32;20066;-37
2021/08/04 03:00:49;;;;;;;8.18;1.75;;;34.60;39.50;;;;;;4343958;32;20070;-38
2021/08/04 03:03:15;;;;;;;5.35;1.80;;;35.00;38.90;;;;;;4357906;32;20065;-38
2021/08/04 03:05:42;;;;;;;4.72;1.70;;;35.40;38.30;;;;;;4357983;32;20147;-38
2021/08/04 03:08:08;;;;;;;4.45;1.60;;;35.80;37.80;;;;;;4357869;32;20067;-39
2021/08/04 03:10:35;;;;;;;4.57;1.65;;;36.30;37.00;;;;;;4358128;32;20507;-38
2021/08/04 03:13:01;;;;;;;4.65;1.45;;;36.70;36.40;;;;;;4358152;32;21041;-37
2021/08/04 03:15:28;;;;;;;9.85;2.50;;;37.00;35.40;;;;;;4344470;32;20568;-40
2021/08/04 03:17:54;;;;;;;5.00;1.50;;;37.40;35.10;;;;;;4358062;32;20478;-39
2021/08/04 03:20:21;;;;;;;6.97;1.58;;;37.60;34.70;;;;;;4343870;32;20548;-38
2021/08/04 03:22:49;;;;;;;5.05;1.50;;;37.80;34.50;;;;;;4344056;32;20581;-39
2021/08/04 03:25:18;;;;;;;6.10;1.98;;;37.90;34.10;;;;;;4357659;32;20070;-38
2021/08/04 03:27:45;;;;;;;9.20;1.75;;;38.00;33.80;;;;;;4343927;32;20090;-38
2021/08/04 03:30:12;;;;;;;7.78;1.85;;;38.00;33.20;;;;;;4344179;32;20148;-39
2021/08/04 03:32:38;;;;;;;8.70;2.30;;;38.00;33.10;;;;;;4357713;32;20054;-37
2021/08/04 03:35:06;;;;;;;11.20;1.85;;;38.00;33.10;;;;;;4357525;32;20216;-38
2021/08/04 03:37:32;;;;;;;4.25;1.67;;;37.90;32.50;;;;;;4331726;32;20106;-37
2021/08/04 03:39:59;;;;;;;10.35;2.30;;;38.00;32.30;;;;;;4357758;32;20534;-39
2021/08/04 03:42:26;;;;;;;3.85;1.30;;;37.90;31.90;;;;;;4347670;32;20520;-39
2021/08/04 03:44:52;;;;;;;8.88;2.47;;;38.00;31.80;;;;;;4342827;33;20078;-38
2021/08/04 03:47:19;;;;;;;4.28;1.60;;;38.10;31.40;;;;;;4342679;33;20067;-37
2021/08/04 03:49:45;;;;;;;9.27;2.05;;;38.30;30.70;;;;;;4342609;32;20091;-38
2021/08/04 03:52:12;;;;;;;4.72;1.85;;;38.60;30.40;;;;;;4342398;33;20444;-40
2021/08/04 03:54:38;;;;;;;8.52;1.58;;;38.80;30.10;;;;;;4342608;33;20066;-38
2021/08/04 03:57:05;;;;;;;7.18;2.20;;;39.20;30.00;;;;;;4329484;33;20071;-38
2021/08/04 03:59:31;;;;;;;5.95;1.55;;;39.50;29.80;;;;;;4348935;32;20518;-39
2021/08/04 04:01:58;;;;;;;7.05;2.08;;;39.80;29.40;;;;;;4360348;32;20527;-38
2021/08/04 04:04:24;;;;;;;2.92;1.58;;;40.00;29.40;;;;;;4360450;32;20491;-38
2021/08/04 04:06:52;;;;;;;11.48;2.10;;;40.30;29.10;;;;;;4360559;32;20095;-38
2021/08/04 04:09:20;;;;;;;8.95;1.80;;;40.60;28.60;;;;;;4359954;32;20531;-38
2021/08/04 04:11:47;;;;;;;8.60;2.12;;;40.80;28.50;;;;;;4360146;32;20100;-38
2021/08/04 04:14:13;;;;;;;6.72;2.62;;;41.00;28.40;;;;;;4358605;32;20497;-38
2021/08/04 04:16:40;;;;;;;6.68;1.92;;;41.20;28.20;;;;;;4359718;32;20148;-38
2021/08/04 04:19:08;;;;;;;5.85;1.50;;;41.50;28.10;;;;;;4346332;32;20538;-40
2021/08/04 04:21:35;;;;;;;6.35;1.73;;;41.70;27.60;;;;;;4346646;32;20088;-38
2021/08/04 04:24:02;;;;;;;5.40;1.73;;;42.00;27.50;;;;;;4359989;32;20465;-40
2021/08/04 04:26:28;;;;;;;8.57;2.10;;;42.20;27.30;;;;;;4359919;32;20078;-38
2021/08/04 04:28:55;;;;;;;10.27;2.25;;;42.50;27.10;;;;;;4345884;32;20055;-38
2021/08/04 04:31:21;;;;;;;7.75;1.62;;;42.70;27.00;;;;;;4360089;32;20097;-39
2021/08/04 04:33:48;;;;;;;5.45;1.62;;;42.80;27.20;;;;;;4357992;32;20066;-38
2021/08/04 04:36:14;;;;;;;5.05;1.60;;;43.00;27.80;;;;;;4359808;32;20094;-38
2021/08/04 04:38:41;;;;;;;5.40;1.65;;;43.10;27.60;;;;;;4359817;32;20183;-38
2021/08/04 04:41:07;;;;;;;11.50;3.08;;;43.20;27.40;;;;;;4355899;32;20090;-39
2021/08/04 04:43:36;;;;;;;6.28;1.90;;;43.20;27.30;;;;;;4344750;33;20097;-37
2021/08/04 04:46:03;;;;;;;5.07;1.60;;;43.30;27.30;;;;;;4344834;33;20066;-38
2021/08/04 04:48:29;;;;;;;6.95;2.67;;;43.20;27.30;;;;;;4345169;33;20058;-39
2021/08/04 04:50:56;;;;;;;5.53;1.42;;;43.20;27.70;;;;;;4344619;33;20477;-38
2021/08/04 04:53:22;;;;;;;7.97;1.65;;;43.20;27.50;;;;;;4344568;33;20094;-38
2021/08/04 04:55:49;;;;;;;6.93;2.22;;;43.10;27.20;;;;;;4344559;33;20168;-38
2021/08/04 04:58:15;;;;;;;5.30;2.00;;;43.00;27.00;;;;;;4330628;33;20071;-38
2021/08/04 05:00:42;;;;;;;6.90;1.73;;;43.00;27.00;;;;;;4357655;32;20081;-38
2021/08/04 05:03:10;;;;;;;7.07;1.92;;;42.70;27.10;;;;;;4359144;32;20070;-38
2021/08/04 05:05:37;;;;;;;3.05;1.80;;;42.50;27.30;;;;;;4359279;32;20067;-37
2021/08/04 05:08:04;;;;;;;6.18;1.87;;;42.20;27.50;;;;;;4359501;32;20156;-39
2021/08/04 05:10:30;;;;;;;9.35;2.60;;;42.10;27.70;;;;;;4359391;32;20059;-39
2021/08/04 05:12:57;;;;;;;6.07;1.73;;;42.10;27.90;;;;;;4344720;32;20089;-39
2021/08/04 05:15:23;;;;;;;5.60;1.92;;;42.20;28.10;;;;;;4359071;32;20055;-41
2021/08/04 05:17:50;;;;;;;4.45;2.22;;;42.20;27.50;;;;;;4359247;32;20217;-39
2021/08/04 05:20:16;;;;;;;8.65;1.90;;;42.20;27.20;;;;;;4359148;32;20121;-39
2021/08/04 05:22:43;;;;;;;9.35;1.77;;;42.20;27.60;;;;;;4359026;32;20080;-39
2021/08/04 05:25:10;;;;;;;5.62;1.60;;;42.20;28.10;;;;;;4359156;32;20450;-38
2021/08/04 05:27:37;;;;;;;5.68;2.00;;;42.50;27.80;;;;;;4345337;32;20059;-38
2021/08/04 05:30:04;;;;;;;6.03;2.25;;;42.70;28.40;;;;;;4359417;32;20255;-39
2021/08/04 05:32:30;;;;;;;4.45;2.10;;;43.00;27.70;;;;;;4345171;32;20078;-39
2021/08/04 05:34:57;;;;;;;5.30;2.25;;;43.00;27.60;;;;;;4326339;33;20098;-38
2021/08/04 05:37:23;;;;;;;3.92;1.83;;;43.00;27.50;;;;;;4326743;33;20071;-39
2021/08/04 05:39:50;;;;;;;9.93;2.35;;;43.00;27.30;;;;;;4326857;33;20099;-39
2021/08/04 05:42:16;;;;;;;3.92;1.83;;;43.10;27.20;;;;;;4326433;33;20085;-38
2021/08/04 05:44:43;;;;;;;4.32;1.40;;;43.00;26.90;;;;;;4326638;33;20205;-39
2021/08/04 05:47:10;;;;;;;3.40;2.25;;;43.00;26.70;;;;;;4326967;33;20071;-39
2021/08/04 05:49:36;;;;;;;7.93;1.95;;;42.80;26.70;;;;;;4326551;33;20184;-39
2021/08/04 05:52:03;;;;;;;8.70;1.87;;;42.70;26.20;;;;;;4326926;33;20570;-39
2021/08/04 05:54:30;;;;;;;9.88;2.42;;;42.70;26.30;;;;;;4326558;33;20066;-39
2021/08/04 05:56:56;;;;;;;11.02;2.72;;;42.70;26.70;;;;;;4326668;33;20573;-39
2021/08/04 05:59:23;;;;;;;3.30;2.00;;;42.80;27.40;;;;;;4331708;33;20074;-39
2021/08/04 06:01:49;;;;;;;8.57;2.58;;;43.00;28.30;;;;;;4341432;33;20154;-39
2021/08/04 06:04:16;;;;;;;4.47;2.00;;;42.90;28.40;;;;;;4341503;33;20151;-39
2021/08/04 06:06:42;;;;;;;3.03;2.55;;;42.70;28.40;;;;;;4341231;33;20063;-38
2021/08/04 06:09:09;;;;;;;5.40;2.00;;;42.50;28.20;;;;;;4340982;33;20077;-38
2021/08/04 06:11:35;;;;;;;7.43;2.15;;;42.20;28.40;;;;;;4329501;33;20078;-39
2021/08/04 06:14:02;;;;;;;3.87;2.03;;;41.90;28.70;;;;;;4343830;33;20106;-39
2021/08/04 06:16:28;;;;;;;11.25;3.28;;;41.60;28.30;;;;;;4343637;33;20094;-39
2021/08/04 06:18:56;;;;;;;7.68;3.37;;;41.40;28.30;;;;;;4343715;33;20461;-38
2021/08/04 06:21:26;;;;;;;6.03;2.25;;;41.00;28.60;;;;;;4343225;33;20082;-38
2021/08/04 06:23:53;;;;;;;8.32;3.00;;;40.60;29.00;;;;;;4343177;33;20170;-38
2021/08/04 06:26:20;;;;;;;8.70;3.05;;;40.10;29.70;;;;;;4343434;32;20125;-38
2021/08/04 06:28:49;;;;;;;4.65;2.90;;;39.70;31.80;;;;;;4343173;33;20070;-39
2021/08/04 06:31:15;;;;;;;10.55;2.78;;;39.20;31.60;;;;;;4343596;33;20077;-38
2021/08/04 06:33:42;;;;;;;10.13;2.97;;;38.90;32.50;;;;;;4353913;32;20074;-39
2021/08/04 06:36:08;;;;;;;4.15;2.22;;;38.60;33.10;;;;;;4343745;33;20063;-38
2021/08/04 06:38:35;;;;;;;6.32;2.05;;;38.40;33.30;;;;;;4343246;33;20610;-38
2021/08/04 06:41:02;;;;;;;7.45;3.22;;;38.30;32.60;;;;;;4352303;32;20077;-38
2021/08/04 06:43:28;;;;;;;7.57;2.70;;;38.30;32.20;;;;;;4327366;33;20128;-38
2021/08/04 06:45:55;;;;;;;4.28;2.45;;;38.40;32.80;;;;;;4328754;33;20169;-39
2021/08/04 06:48:21;;;;;;;9.38;2.92;;;38.50;33.20;;;;;;4328144;33;20582;-39
2021/08/04 06:50:48;;;;;;;3.87;2.28;;;38.70;32.90;;;;;;4328203;33;20051;-39
2021/08/04 06:53:14;;;;;;;5.43;2.08;;;38.80;32.00;;;;;;4328643;33;20075;-39
2021/08/04 06:55:40;;;;;;;8.02;2.53;;;39.00;31.50;;;;;;4328507;33;20063;-39
2021/08/04 06:58:07;;;;;;;6.75;2.45;;;39.20;31.10;;;;;;4328515;33;20062;-39
2021/08/04 07:00:34;;;;;;;6.97;2.22;;;39.50;31.20;;;;;;4353144;32;20043;-39
2021/08/04 07:03:00;;;;;;;7.45;3.15;;;39.80;30.90;;;;;;4358044;32;20711;-39
2021/08/04 07:05:26;;;;;;;5.40;2.53;;;40.20;30.50;;;;;;4357823;32;20151;-39
2021/08/04 07:07:53;;;;;;;7.28;2.10;;;40.60;30.00;;;;;;4358020;32;20080;-38
2021/08/04 07:10:19;;;;;;;8.82;2.53;;;41.00;29.90;;;;;;4357735;32;20050;-39
2021/08/04 07:12:47;;;;;;;5.72;1.58;;;41.30;29.80;;;;;;4357737;32;20120;-39
2021/08/04 07:15:14;;;;;;;4.25;1.70;;;41.50;28.20;;;;;;4357529;32;20055;-39
2021/08/04 07:17:48;;;;;;;8.35;1.42;;;41.80;27.60;;;;;;4358342;32;20164;-39
2021/08/04 07:20:16;;;;;;;6.95;1.65;;;42.00;27.50;;;;;;4357859;32;20482;-40
2021/08/04 07:22:43;;;;;;;6.82;1.65;;;42.20;27.20;;;;;;4357716;32;20139;-39
2021/08/04 07:25:11;;;;;;;2.65;1.42;;;42.30;26.50;;;;;;4357791;32;20493;-38
2021/08/04 07:27:38;;;;;;;5.57;1.83;;;42.60;26.40;;;;;;4344283;32;20153;-38
2021/08/04 07:30:07;;;;;;;7.05;1.60;;;42.70;26.40;;;;;;4357356;32;20090;-38
2021/08/04 07:32:34;;;;;;;4.20;1.62;;;43.00;26.60;;;;;;4357432;32;20190;-38
2021/08/04 07:35:00;;;;;;;4.35;2.20;;;43.10;26.10;;;;;;4357939;32;20062;-39
2021/08/04 07:37:34;;;;;;;5.78;1.37;;;43.20;25.80;;;;;;4360521;32;20139;-39
2021/08/04 07:40:01;;;;;;;10.77;1.77;;;43.30;26.20;;;;;;4360485;32;20092;-39
2021/08/04 07:42:27;;;;;;;15.70;1.60;;;43.50;25.80;;;;;;4360433;32;20171;-39
2021/08/04 07:44:56;;;;;;;3.53;1.37;;;43.70;25.60;;;;;;4360457;32;20146;-39
2021/08/04 07:47:22;;;;;;;8.02;1.75;;;43.80;25.10;;;;;;4346660;32;20066;-38
2021/08/04 07:49:49;;;;;;;4.68;2.12;;;43.90;25.10;;;;;;4360753;32;20143;-38
2021/08/04 07:52:15;;;;;;;5.15;1.95;;;43.90;27.40;;;;;;4346579;32;20477;-39
2021/08/04 07:54:42;;;;;;;3.20;1.73;;;43.90;28.10;;;;;;4360457;32;20131;-39
2021/08/04 07:57:08;;;;;;;9.05;1.98;;;44.00;28.40;;;;;;4360543;32;20062;-39
2021/08/04 07:59:35;;;;;;;6.25;2.33;;;44.30;28.30;;;;;;4360124;32;20066;-39
2021/08/04 08:02:03;;;;;;;5.30;1.83;;;44.70;28.30;;;;;;4360587;32;20093;-38
2021/08/04 08:04:31;;;;;;;5.87;1.90;;;45.00;28.00;;;;;;4346234;32;20058;-39
2021/08/04 08:06:59;;;;;;;5.80;1.52;;;45.30;27.60;;;;;;4360184;32;20150;-38
2021/08/04 08:09:26;;;;;;;4.53;1.80;;;45.60;27.30;;;;;;4360204;32;20065;-40
2021/08/04 08:11:55;;;;;;;6.68;1.48;;;45.80;26.60;;;;;;4360132;32;20066;-38
2021/08/04 08:14:21;;;;;;;4.97;1.42;;;46.10;27.00;;;;;;4360377;32;20485;-36
2021/08/04 08:16:48;;;;;;;4.32;1.45;;;46.10;27.40;;;;;;4359972;32;20466;-37
2021/08/04 08:19:14;;;;;;;4.15;1.83;;;46.10;27.30;;;;;;4360546;32;20082;-38
2021/08/04 08:21:41;;;;;;;3.97;1.58;;;46.10;27.30;;;;;;4358722;32;20065;-37
2021/08/04 08:24:08;;;;;;;6.43;1.92;;;45.80;27.40;;;;;;4346293;32;20073;-38
2021/08/04 08:26:35;;;;;;;2.03;1.58;;;45.50;27.50;;;;;;4360005;32;20520;-37
2021/08/04 08:29:03;;;;;;;10.82;1.80;;;45.10;27.60;;;;;;4359915;32;20061;-38
2021/08/04 08:31:30;;;;;;;6.72;2.08;;;44.50;28.00;;;;;;4360114;32;20081;-38
2021/08/04 08:33:59;;;;;;;6.35;2.03;;;43.80;28.80;;;;;;4345941;32;20062;-39
2021/08/04 08:36:30;;;;;;;6.87;2.22;;;43.20;29.00;;;;;;4359745;32;20175;-38
2021/08/04 08:38:58;;;;;;;6.40;1.50;;;42.40;28.20;;;;;;4359726;32;20133;-37
2021/08/04 08:41:25;;;;;;;9.48;1.80;;;41.90;28.10;;;;;;4341993;33;20050;-39
2021/08/04 08:43:52;;;;;;;4.90;1.87;;;41.30;27.90;;;;;;4344995;33;20065;-37
2021/08/04 08:46:19;;;;;;;3.37;1.40;;;40.90;27.90;;;;;;4344632;32;20432;-38
2021/08/04 08:48:47;;;;;;;4.55;1.50;;;40.40;27.70;;;;;;4330921;33;20152;-37
2021/08/04 08:51:18;;;;;;;6.40;2.55;;;40.20;27.40;;;;;;4345325;33;20074;-38
2021/08/04 08:53:45;;;;;;;5.93;1.65;;;40.30;27.20;;;;;;4331030;33;20150;-37
2021/08/04 08:56:18;;;;;;;1.27;0.70;;;40.30;27.30;;;;;;4344960;33;20059;-37
2021/08/04 08:58:49;;;;;;;3.92;1.62;;;40.30;27.60;;;;;;4345694;32;20102;-38
2021/08/04 09:01:16;;;;;;;4.68;2.00;;;40.10;27.70;;;;;;4359752;32;20065;-38
2021/08/04 09:03:42;;;;;;;5.55;1.85;;;40.20;28.10;;;;;;4327484;33;20104;-37
2021/08/04 09:06:09;;;;;;;8.68;2.00;;;40.30;28.50;;;;;;4327308;33;20060;-38
2021/08/04 09:08:37;;;;;;;1.55;0.90;;;40.20;28.70;;;;;;4327178;33;20063;-38
2021/08/04 09:11:18;;;;;;;3.28;1.75;;;40.10;28.70;;;;;;4327064;33;20085;-37
2021/08/04 09:13:45;;;;;;;5.10;2.00;;;40.10;28.90;;;;;;4327580;33;20067;-38
2021/08/04 09:16:16;;;;;;;3.53;1.30;;;40.00;29.00;;;;;;4327273;33;20067;-38
2021/08/04 09:18:47;;;;;;;2.78;1.00;;;39.90;29.30;;;;;;4327069;33;20063;-38
2021/08/04 09:21:16;;;;;;;8.55;2.00;;;39.80;29.10;;;;;;4327440;33;20482;-36
2021/08/04 09:23:53;;;;;;;4.12;1.52;;;39.70;29.20;;;;;;4326888;33;20172;-38
2021/08/04 09:26:26;;;;;;;1.80;0.93;;;39.50;29.30;;;;;;4326993;33;20059;-39
2021/08/04 09:29:01;;;;;;;4.18;1.37;;;39.40;29.50;;;;;;4327029;33;20086;-37
2021/08/04 09:31:48;;;;;;;5.30;2.70;;;39.30;29.40;;;;;;4327161;33;20531;-37
2021/08/04 09:34:40;;;;;;;5.37;2.35;;;39.30;29.70;;;;;;4336970;32;20094;-37
2021/08/04 09:37:21;;;;;;;2.90;1.60;;;39.20;29.60;;;;;;4359215;32;20069;-39
2021/08/04 09:39:54;;;;;;;5.90;2.50;;;39.20;29.80;;;;;;4358974;32;20580;-37
2021/08/04 09:42:21;;;;;;;6.00;3.20;;;39.10;29.60;;;;;;4349223;32;20066;-38
2021/08/04 09:44:58;;;;;;;5.78;2.05;;;39.10;29.80;;;;;;4330487;33;20062;-37
2021/08/04 09:47:24;;;;;;;3.45;1.25;;;39.00;29.80;;;;;;4344191;33;20073;-38
2021/08/04 09:50:08;;;;;;;2.37;1.20;;;38.90;29.60;;;;;;4344008;33;20111;-37
2021/08/04 09:52:38;;;;;;;2.47;1.75;;;38.90;30.00;;;;;;4343884;33;20165;-38
2021/08/04 09:55:12;;;;;;;3.95;1.70;;;38.90;30.00;;;;;;4343816;32;20149;-38
2021/08/04 09:57:46;;;;;;;4.00;2.72;;;39.00;30.00;;;;;;4329371;33;20644;-38
2021/08/04 10:00:15;;;;;;;4.90;2.17;;;39.10;29.90;;;;;;4353933;32;20073;-38
2021/08/04 10:02:44;;;;;;;2.28;1.30;;;39.10;29.80;;;;;;4358221;32;20094;-38
2021/08/04 10:05:25;;;;;;;5.40;2.55;;;39.20;29.60;;;;;;4344960;32;20647;-39
2021/08/04 10:08:09;;;;;;;5.65;2.80;;;39.20;29.60;;;;;;4358331;32;20074;-40
2021/08/04 10:10:50;;;;;;;5.18;2.37;;;39.30;29.60;;;;;;4358376;32;20171;-38
2021/08/04 10:13:18;;;;;;;4.95;1.10;;;39.40;29.60;;;;;;4358554;32;20144;-39
2021/08/04 10:15:50;;;;;;;3.60;1.70;;;39.40;29.40;;;;;;4358506;32;20062;-37
2021/08/04 10:18:27;;;;;;;1.75;1.10;;;39.40;29.30;;;;;;4358451;32;20062;-39
2021/08/04 10:21:01;;;;;;;1.60;0.70;;;39.20;29.10;;;;;;4358363;32;20560;-38
2021/08/04 10:23:29;;;;;;;2.65;1.98;;;39.20;29.10;;;;;;4358141;32;20066;-38
2021/08/04 10:25:57;;;;;;;3.83;1.30;;;39.20;29.50;;;;;;4344986;32;20079;-38
2021/08/04 10:28:26;;;;;;;2.70;1.65;;;39.20;29.60;;;;;;4358020;32;20155;-39
2021/08/04 10:30:52;;;;;;;3.58;1.45;;;39.10;29.80;;;;;;4332154;32;20062;-39
2021/08/04 10:33:19;;;;;;;1.77;1.40;;;39.00;29.60;;;;;;4358102;32;20086;-40
2021/08/04 10:36:00;;;;;;;1.58;1.12;;;38.80;29.50;;;;;;4358097;32;20104;-39
2021/08/04 10:38:26;;;;;;;3.10;1.30;;;38.70;29.80;;;;;;4345346;32;20585;-37
2021/08/04 10:41:17;;;;;;;3.72;1.75;;;38.60;30.00;;;;;;4343455;32;20073;-38
2021/08/04 10:44:22;;;;;;;5.80;2.30;;;38.40;30.20;;;;;;4343297;33;20162;-38
2021/08/04 10:46:49;;;;;;;1.95;1.25;;;38.30;30.20;;;;;;4340447;33;20098;-37
2021/08/04 10:49:30;;;;;;;5.43;1.33;;;38.30;30.00;;;;;;4343375;33;20082;-37
2021/08/04 10:51:56;;;;;;;1.77;1.30;;;38.30;29.90;;;;;;4343080;33;20082;-37
2021/08/04 10:54:23;;;;;;;2.30;1.25;;;38.40;29.50;;;;;;4343279;33;20066;-39
2021/08/04 10:57:04;;;;;;;2.00;1.35;;;38.50;29.40;;;;;;4343355;33;20071;-38
2021/08/04 10:59:32;;;;;;;5.40;1.73;;;38.50;29.00;;;;;;4348917;32;20066;-38
2021/08/04 11:02:02;;;;;;;2.60;1.35;;;38.40;28.70;;;;;;4358204;32;20061;-38
2021/08/04 11:04:28;;;;;;;4.00;2.05;;;38.40;28.90;;;;;;4358246;32;20073;-39
2021/08/04 11:07:13;;;;;;;1.73;1.60;;;38.40;29.10;;;;;;4358057;32;20529;-38
2021/08/04 11:10:00;;;;;;;2.45;1.12;;;38.50;29.00;;;;;;4344325;32;20062;-38
2021/08/04 11:12:35;;;;;;;2.03;1.20;;;38.50;29.00;;;;;;4360812;32;20165;-39
2021/08/04 11:15:03;;;;;;;5.25;1.58;;;38.50;29.10;;;;;;4360568;32;20163;-38
2021/08/04 11:17:32;;;;;;;5.12;2.17;;;38.60;29.10;;;;;;4361129;32;20499;-37
2021/08/04 11:19:59;;;;;;;8.48;1.77;;;38.70;29.10;;;;;;4360886;32;20063;-38
2021/08/04 11:22:35;;;;;;;0.80;0.68;;;38.70;29.00;;;;;;4361303;32;20066;-38
2021/08/04 11:25:33;;;;;;;3.05;0.90;;;38.80;29.00;;;;;;4360756;32;20145;-38
2021/08/04 11:28:00;;;;;;;6.43;0.77;;;38.80;28.60;;;;;;4349048;32;20091;-38
2021/08/04 11:30:40;;;;;;;2.67;0.77;;;38.80;28.60;;;;;;4360563;32;20090;-39
2021/08/04 11:33:18;;;;;;;3.80;1.48;;;38.80;28.60;;;;;;4360063;32;20097;-38
2021/08/04 11:35:46;;;;;;;2.75;1.90;;;38.80;28.20;;;;;;4360585;32;20065;-39
2021/08/04 11:38:13;;;;;;;3.90;1.20;;;38.80;28.20;;;;;;4360805;32;20135;-38
2021/08/04 11:40:39;;;;;;;2.08;1.02;;;38.80;28.00;;;;;;4360607;32;20085;-38
2021/08/04 11:43:05;;;;;;;6.68;1.42;;;38.90;28.10;;;;;;4345988;32;20163;-38
2021/08/04 11:45:32;;;;;;;2.87;1.05;;;38.90;28.00;;;;;;4345507;33;20090;-40
2021/08/04 11:47:58;;;;;;;2.08;1.25;;;39.00;28.10;;;;;;4345221;32;20483;-38
2021/08/04 11:50:25;;;;;;;3.60;1.00;;;39.10;28.10;;;;;;4345665;32;20105;-38
2021/08/04 11:52:52;;;;;;;1.35;0.90;;;39.10;28.10;;;;;;4332122;33;20066;-38
2021/08/04 11:55:24;;;;;;;2.30;1.50;;;39.10;28.70;;;;;;4331761;33;20073;-39
2021/08/04 11:57:56;;;;;;;4.78;2.15;;;39.10;28.90;;;;;;4332354;33;20075;-38
2021/08/04 12:00:24;;;;;;;0.60;0.60;;;39.20;29.20;;;;;;4356875;32;20145;-38
2021/08/04 12:02:51;;;;;;;2.33;1.00;;;39.20;29.40;;;;;;4360338;32;20574;-38
2021/08/04 12:05:18;;;;;;;3.78;2.47;;;39.20;29.70;;;;;;4359943;32;20078;-39
2021/08/04 12:07:44;;;;;;;0.80;0.55;;;39.10;29.70;;;;;;4360445;32;20152;-38
2021/08/04 12:10:13;;;;;;;4.35;1.70;;;39.10;29.80;;;;;;4360007;32;20154;-38
2021/08/04 12:12:42;;;;;;;1.17;0.93;;;38.90;29.90;;;;;;4360008;32;20147;-37
2021/08/04 12:15:18;;;;;;;2.70;1.58;;;38.80;30.00;;;;;;4360135;32;20069;-37
2021/08/04 12:17:45;;;;;;;3.62;1.75;;;38.70;30.10;;;;;;4360201;32;20055;-39
2021/08/04 12:20:16;;;;;;;3.25;1.75;;;38.70;30.40;;;;;;4360252;32;20517;-37
2021/08/04 12:22:43;;;;;;;2.97;2.08;;;38.60;30.40;;;;;;4345629;32;20081;-38
2021/08/04 12:25:15;;;;;;;2.67;1.40;;;38.50;30.50;;;;;;4360112;32;20054;-38
2021/08/04 12:27:47;;;;;;;3.17;2.80;;;38.40;30.50;;;;;;4346467;32;20059;-38
2021/08/04 12:30:20;;;;;;;6.95;1.10;;;38.40;30.60;;;;;;4359912;32;20155;-37
2021/08/04 12:32:52;;;;;;;3.00;2.05;;;38.30;30.50;;;;;;4359535;32;20050;-37
2021/08/04 12:35:44;;;;;;;0.88;0.82;;;38.20;30.50;;;;;;4359665;32;20082;-38
2021/08/04 12:38:20;;;;;;;2.40;1.30;;;38.10;30.50;;;;;;4336361;32;20050;-40
2021/08/04 12:40:49;;;;;;;4.30;2.42;;;38.10;30.40;;;;;;4345768;32;20055;-39
2021/08/04 12:43:17;;;;;;;3.83;1.58;;;38.20;30.60;;;;;;4331489;33;20083;-38
2021/08/04 12:45:51;;;;;;;3.70;3.12;;;38.20;30.20;;;;;;4319124;33;20554;-38
2021/08/04 12:48:20;;;;;;;2.80;1.75;;;38.30;30.30;;;;;;4344522;33;20058;-39
2021/08/04 12:50:59;;;;;;;3.92;2.20;;;38.20;30.20;;;;;;4344945;33;20074;-38
2021/08/04 12:53:32;;;;;;;4.30;2.28;;;38.20;30.30;;;;;;4344581;33;20612;-38
2021/08/04 12:56:07;;;;;;;1.98;1.73;;;38.20;30.10;;;;;;4331058;33;20058;-37